Airport details for: LJMB (Slovenia)

Metar

LJMB 250930Z 30001KT 9999 SCT043 10/02 Q1027

General details

ICAO: LJMB
IATA: MBX
Name (city): Orehova Vas
Major:
Country: Slovenia
vACC: vACC Slovenia
Description:
Scenery links:
FS9 scenery:
FSX/P3D scenery:
XP scenery:
Elevation: 876 ft.
Transition altitude: 10500 ft.
MSA: 8200 ft.
Latitude: 46.479861
Longitude: 15.686131
LJMB Charts
LJMB Notams
LJMB Online stations

Runways

Number Course Length Elevation Lat Lon ILS ILS freq ILS FAC GP
14 143° 8202ft / 2500 m 875ft 46.48915 15.677095 - - 3.0°
32 323° 8202ft / 2500 m 856ft 46.47057 15.695161 110.1 323° 3.0°